Cozad, NE (69130)

8:33 AM CDT on May 22, 2015 (GMT -0500)
Cozad, Nebraska | | Change Station
CLOSE
Current Station
Personal Weather Station
Location: Cozad, NE
Elevation: 2487 ft
Nearby Weather Stations
Active Advisory: Flood Warning

Elev 2487 ft 40.86 °N, 99.92 °W | Updated 21 seconds ago

Clear
Clear
47.1 °F
Feels Like 47 °F
N
0.0
Wind Variable Wind from SSE
Gusts 1.0 mph

Today
High -- | Low -- °F
--% Chance of Precip.
Yesterday
High -- | Low -- °F
Precip. -- in
6:16 AM 8:57 PM
Waxing Crescent, 21% visible
Pressure 30.18 in
Visibility 10.0 miles
Clouds Clear
Windchill 47 °F
Dew Point 45 °F
Humidity 93%
Rainfall 0.00 in
Snow Depth Not available.
UV 2 out of 12
Pollen 4.30 out of 12
Air Quality Not available.
Flu Activity Sporadic
METAR KLXN 221315Z AUTO 13005KT 10SM CLR 09/08 A3018 RMK AO2 T00930075

More Conditions Fewer Conditions

Pressure 30.18 in
Visibility 10.0 miles
Clouds Clear
Windchill 47 °F
Dew Point 45 °F
Humidity 93%
Rainfall 0.00 in
Snow Depth Not available.
UV 2 out of 12
Pollen 4.30 out of 12
Air Quality Not available.
Flu Activity Sporadic
METAR KLXN 221315Z AUTO 13005KT 10SM CLR 09/08 A3018 RMK AO2 T00930075

More Conditions Fewer Conditions

10-Day Weather Forecast

Almanac

Astronomy

May. 22, 2015 Rise Set
Actual Time
Civil Twilight
Nautical Twilight
Astronomical Twilight
Moon
Length of Visible Light
Length of Day
Tomorrow will be .
, % of the Moon is Illuminated

Today's Extremes

State Highs State Lows

Community

WunderPhotos

Upload Photos

1,823,215 photos uploaded!

WunderBlogs® & News

Nearby

Air Quality

  Air Quality AQ Index Pollutant
Not available.

Snow Depth

Station Depth Elevation

Earthquake Activity

City Distance Mag. Time & Date
Minimum magnitude displayed is 2.5.

Coastal Water Temperatures

Place Temperature

Stations

Nearby Weather Stations

Station Location Temp. Windchill Dew Point Humidity Wind Precip. Elev Updated Type
                   
Flood Warning
Statement as of 8:12 PM CDT on May 21, 2015

The Flood Warning continues for
the Platte River near Cozad.
* At 6:00 PM Thursday the stage was 6.5 feet.
* Flood stage is 6.5 feet.
* Forecast... the river will continue to fall to below flood stage by
Friday morning... and then will slowly fall through the next
several days. However... there is some uncertainty with this
forecast depending on how much additional rain falls this weekend
into next week.
* At 6.5 feet... minor lowland flooding occurs as both banks overflow.
Minor flooding continues at the Blue Heron campground near
Gothenburg. This warning covers The Reach of the Platte River
from near Gothenburg to near Lexington.


Lat... Lon 4097 10022 4077 9973 4068 9973 4090 10022